Villa Castelli, Argentina
Current Conditions -  °F | °C
As of 6:00 PM on Saturday 25 Oct 2014 (Local Time) from SCSE Reporting Station
Overcast Overcast  
Wind Chill: 57°   Ceiling: 1000
Heat Index: 57°   Visibility: 6mi
Dew Point: 54°   Wind: 6mph
Humidity: 88%   Direction: 250°WSW
Pressure: 29.94"   Gusts: NA
Location:  29°S, 68.18°W
Report Text: SCSE 252100Z 25005KT 9999 FEW009 OVC010 14/12 Q1014
Loading
Personal Weather Stations






























Interactive Weather Map
Tropical Storm Tracking
New forecast layout! Learn more

10-Day Weather Forecast

Advertisements
Track Severe Weather on mobile